Terminal Aerodrome Forecast
Issued by NWS

Current Version | Previous Version | Text Only | Print | Product List | Glossary Off
Versions: 1 2 3 4 5 6 7 8 9 10 11 12 13 14

724
FTUS41 KPBZ 172113 AAB
TAFMGW
TAF AMD
KMGW 172113Z 1721/1818 21005KT P6SM VCSH OVC022
     FM180400 24006KT P6SM BKN035
     FM181300 22010G20KT P6SM SCT120=

USA.gov is the U.S. government's official web portal to all federal, state and local government web resources and services.